Chimpay, Argentina
Current Conditions -  °F | °C
As of 10:00 PM on Saturday 20 Dec 2014 (Local Time) from SAZN Reporting Station
Scattered Clouds Scattered Clouds  
Wind Chill: 57°   Ceiling: Unl
Heat Index: 57°   Visibility: 6mi
Dew Point: 27°   Wind: 6mph
Humidity: 31%   Direction: 230°SW
Pressure: 29.88"   Gusts: NA
Location:  39.18°S, 65.96°W
Report Text: SAZN 210100Z 23005KT 9999 FEW040 SCT10014/M03 Q1012
Loading
Personal Weather Stations






























Interactive Weather Map New forecast layout! Learn more

10-Day Weather Forecast

Advertisements
Track Severe Weather on mobile